Time;durP1;ratioP1;P1;durP2;ratioP2;P2;SDS_P1;SDS_P2;PMS_P1;PMS_P2;Temp;Humidity;BMP_temperature;BMP_pressure;BME280_temperature;BME280_humidity;BME280_pressure;Samples;Min_cycle;Max_cycle;Signal;HPM_P1;HPM_P2
2022/01/11 00:00:41;;;;;;;80.07;26.10;;;;;;;-0.45;98.01;102972.69;5046243;28;20040;-62
2022/01/11 00:03:07;;;;;;;57.17;23.87;;;;;;;-0.47;98.18;102979.69;5056816;28;20041;-61
2022/01/11 00:05:39;;;;;;;47.37;23.30;;;;;;;-0.46;98.14;102981.41;5047084;28;20103;-62
2022/01/11 00:08:08;;;;;;;53.67;22.87;;;;;;;-0.47;98.51;102989.25;5041083;28;20124;-62
2022/01/11 00:10:45;;;;;;;51.00;24.07;;;;;;;-0.44;98.53;102999.63;5045730;28;20130;-61
2022/01/11 00:13:10;;;;;;;56.13;24.40;;;;;;;-0.43;98.04;103012.59;5048058;28;20472;-62
2022/01/11 00:15:36;;;;;;;52.97;24.30;;;;;;;-0.37;98.34;103015.97;5049090;28;20029;-62
2022/01/11 00:18:01;;;;;;;48.87;23.33;;;;;;;-0.35;96.65;103011.59;5047424;28;20029;-61
2022/01/11 00:20:28;;;;;;;49.23;23.17;;;;;;;-0.43;97.59;103012.59;5052720;28;20041;-62
2022/01/11 00:25:26;;;;;;;56.87;24.23;;;;;;;-0.39;97.56;103009.94;5048307;28;21398;-62
2022/01/11 00:27:51;;;;;;;52.43;24.50;;;;;;;-0.41;97.97;103005.63;5045321;28;20400;-61
2022/01/11 00:30:16;;;;;;;53.33;24.77;;;;;;;-0.36;97.56;103007.25;5034957;28;20033;-61
2022/01/11 00:32:47;;;;;;;57.00;25.80;;;;;;;-0.38;98.07;103009.03;5044454;28;20399;-62
2022/01/11 00:35:16;;;;;;;53.47;25.20;;;;;;;-0.40;97.91;103011.69;5049050;28;20029;-62
2022/01/11 00:37:42;;;;;;;57.37;25.43;;;;;;;-0.44;97.65;103004.84;5046352;28;20029;-61
2022/01/11 00:40:08;;;;;;;58.77;25.93;;;;;;;-0.48;98.04;103004.06;5046294;28;20025;-61
2022/01/11 00:42:34;;;;;;;55.00;26.17;;;;;;;-0.49;98.17;103002.31;5035571;28;20021;-62
2022/01/11 00:44:59;;;;;;;55.47;26.87;;;;;;;-0.44;98.46;102992.66;5041878;28;20032;-61
2022/01/11 00:47:25;;;;;;;60.63;26.83;;;;;;;-0.46;98.30;102991.84;5038384;28;20029;-61
2022/01/11 00:49:52;;;;;;;57.23;26.43;;;;;;;-0.44;98.37;102984.81;5039392;28;20496;-61
2022/01/11 00:52:17;;;;;;;55.10;26.47;;;;;;;-0.45;98.25;102995.31;5040968;28;20028;-61
2022/01/11 00:54:42;;;;;;;58.47;27.50;;;;;;;-0.45;98.30;102992.72;5038306;28;20504;-62
2022/01/11 00:57:08;;;;;;;57.90;25.60;;;;;;;-0.49;98.48;102994.50;5039695;28;20176;-62
2022/01/11 00:59:33;;;;;;;59.23;26.07;;;;;;;-0.44;98.74;102989.19;5040294;28;20025;-62
2022/01/11 01:01:59;;;;;;;64.20;26.83;;;;;;;-0.49;98.56;102998.88;5036497;28;20392;-62
2022/01/11 01:04:24;;;;;;;56.23;25.90;;;;;;;-0.47;98.71;102997.06;5040427;28;20045;-62
2022/01/11 01:06:49;;;;;;;60.23;26.30;;;;;;;-0.45;98.82;102995.31;5034349;28;20036;-61
2022/01/11 01:09:15;;;;;;;58.83;26.43;;;;;;;-0.43;98.55;103001.34;5037583;28;20033;-62
2022/01/11 01:11:43;;;;;;;58.60;26.07;;;;;;;-0.45;98.79;103003.97;5039743;28;20404;-60
2022/01/11 01:14:09;;;;;;;57.53;26.57;;;;;;;-0.42;98.68;103009.13;5039781;28;20076;-62
2022/01/11 01:16:34;;;;;;;58.80;26.73;;;;;;;-0.43;98.65;103015.22;5037083;28;20040;-62
2022/01/11 01:18:59;;;;;;;58.43;26.80;;;;;;;-0.37;98.81;103010.75;5038827;28;20029;-60
2022/01/11 01:21:25;;;;;;;58.30;26.43;;;;;;;-0.34;98.78;103002.88;5036494;28;20033;-62
2022/01/11 01:23:50;;;;;;;62.33;26.53;;;;;;;-0.37;98.14;103009.00;5042365;28;20121;-62
2022/01/11 01:26:17;;;;;;;63.73;26.97;;;;;;;-0.35;98.73;103008.97;5035028;28;20420;-62
2022/01/11 01:28:44;;;;;;;62.77;26.73;;;;;;;-0.36;98.68;102997.69;5038341;28;20120;-62
2022/01/11 01:31:09;;;;;;;61.20;27.40;;;;;;;-0.42;98.03;102998.69;5035639;28;20523;-61
2022/01/11 01:33:35;;;;;;;65.60;28.60;;;;;;;-0.43;98.20;103002.19;5039918;28;20029;-61
2022/01/11 01:36:04;;;;;;;65.80;27.23;;;;;;;-0.43;98.26;103009.16;5037038;28;20091;-62
2022/01/11 01:38:31;;;;;;;64.70;27.60;;;;;;;-0.43;98.87;102996.97;5038388;28;20036;-62
2022/01/11 01:41:03;;;;;;;64.77;27.03;;;;;;;-0.36;98.42;103012.47;5039774;28;20033;-61
2022/01/11 01:43:29;;;;;;;66.00;27.67;;;;;;;-0.39;98.09;103009.94;5048438;28;20523;-62
2022/01/11 01:45:58;;;;;;;66.93;28.63;;;;;;;-0.45;98.27;103008.34;5050382;28;20025;-61
2022/01/11 01:48:24;;;;;;;64.83;27.67;;;;;;;-0.46;98.51;103007.47;5042424;28;20502;-62
2022/01/11 01:50:51;;;;;;;66.27;27.43;;;;;;;-0.43;98.34;103012.59;5048227;28;20126;-62
2022/01/11 01:53:17;;;;;;;70.73;27.97;;;;;;;-0.42;98.21;103008.25;5049397;28;20057;-62
2022/01/11 01:55:44;;;;;;;69.20;28.10;;;;;;;-0.46;98.39;103004.88;5048853;28;20110;-61
2022/01/11 01:58:11;;;;;;;60.03;27.20;;;;;;;-0.45;98.08;103009.19;5045760;28;20156;-62
2022/01/11 02:00:42;;;;;;;62.77;26.13;;;;;;;-0.45;98.08;103006.56;5044344;28;20029;-61
2022/01/11 02:03:12;;;;;;;61.60;27.27;;;;;;;-0.48;98.52;103006.66;5048962;28;20049;-60
2022/01/11 02:05:42;;;;;;;59.57;27.33;;;;;;;-0.48;98.23;103014.47;5050332;28;20032;-62
2022/01/11 02:08:09;;;;;;;61.40;26.00;;;;;;;-0.48;98.04;103019.69;5049469;28;20044;-60
2022/01/11 02:10:36;;;;;;;62.47;27.30;;;;;;;-0.49;98.44;103019.72;5041195;28;20488;-62
2022/01/11 02:13:03;;;;;;;61.67;26.13;;;;;;;-0.48;97.97;103024.91;5046748;28;20029;-62
2022/01/11 02:15:29;;;;;;;59.27;25.57;;;;;;;-0.47;98.43;103024.00;5052635;28;20036;-62
2022/01/11 02:18:06;;;;;;;53.50;24.73;;;;;;;-0.45;98.31;103021.38;5054345;28;20033;-61
2022/01/11 02:20:31;;;;;;;58.73;24.90;;;;;;;-0.47;98.18;103031.84;5049205;28;20086;-61
2022/01/11 02:22:56;;;;;;;58.37;25.73;;;;;;;-0.51;97.56;103040.59;5048541;28;20416;-62
2022/01/11 02:25:21;;;;;;;58.43;25.13;;;;;;;-0.50;97.82;103046.69;5051453;28;20036;-62
2022/01/11 02:27:47;;;;;;;58.30;25.30;;;;;;;-0.51;97.95;103051.03;5049655;28;20039;-62
2022/01/11 02:30:12;;;;;;;58.20;25.53;;;;;;;-0.50;97.42;103051.91;5047963;28;20469;-62
2022/01/11 02:32:48;;;;;;;56.10;25.57;;;;;;;-0.54;97.83;103045.91;5047810;28;20037;-62
2022/01/11 02:35:13;;;;;;;56.33;26.10;;;;;;;-0.53;97.90;103045.00;5050786;28;20094;-61
2022/01/11 02:37:41;;;;;;;58.80;24.80;;;;;;;-0.52;97.73;103038.91;5050122;28;20094;-62
2022/01/11 02:40:07;;;;;;;57.83;26.27;;;;;;;-0.54;97.54;103051.13;5043110;28;20080;-62
2022/01/11 02:42:33;;;;;;;53.80;24.30;;;;;;;-0.52;97.21;103057.13;5047524;28;20087;-62
2022/01/11 02:44:58;;;;;;;56.70;24.40;;;;;;;-0.50;98.01;103062.31;5045581;28;20029;-60
2022/01/11 02:47:23;;;;;;;57.07;25.83;;;;;;;-0.50;97.37;103060.56;5042773;28;20377;-62
2022/01/11 02:49:48;;;;;;;60.83;26.10;;;;;;;-0.52;97.75;103059.75;5054595;28;20029;-62
2022/01/11 02:52:14;;;;;;;58.43;25.53;;;;;;;-0.49;97.67;103059.66;5046700;28;20086;-62
2022/01/11 02:54:39;;;;;;;60.97;25.53;;;;;;;-0.57;97.22;103061.59;5055238;28;20491;-62
2022/01/11 02:57:04;;;;;;;57.77;26.03;;;;;;;-0.55;97.15;103075.44;5048767;28;20391;-62
2022/01/11 02:59:30;;;;;;;60.13;26.17;;;;;;;-0.52;97.82;103075.38;5046270;28;20090;-62
2022/01/11 03:01:55;;;;;;;57.77;25.17;;;;;;;-0.53;97.48;103071.06;5045329;28;20025;-62
2022/01/11 03:04:20;;;;;;;56.00;24.97;;;;;;;-0.51;97.12;103068.41;5048971;28;20064;-61
2022/01/11 03:06:46;;;;;;;60.23;26.03;;;;;;;-0.51;97.00;103077.09;5043526;28;20048;-62
2022/01/11 03:09:11;;;;;;;58.97;25.30;;;;;;;-0.53;97.17;103068.47;5047906;28;20039;-62
2022/01/11 03:11:36;;;;;;;58.60;26.43;;;;;;;-0.58;97.06;103072.91;5048011;28;20037;-62
2022/01/11 03:14:03;;;;;;;60.83;26.13;;;;;;;-0.63;97.07;103077.38;5044617;28;20068;-62
2022/01/11 03:16:29;;;;;;;61.17;25.43;;;;;;;-0.62;97.19;103073.88;5046306;28;20512;-61
2022/01/11 03:18:54;;;;;;;59.00;25.87;;;;;;;-0.61;97.32;103070.34;5048218;28;20461;-62
2022/01/11 03:21:20;;;;;;;57.07;26.30;;;;;;;-0.59;97.33;103073.81;5048954;28;20039;-61
2022/01/11 03:23:45;;;;;;;58.60;26.70;;;;;;;-0.60;97.61;103066.88;5054633;28;20033;-62
2022/01/11 03:26:10;;;;;;;58.60;26.70;;;;;;;-0.63;96.72;103077.38;5050243;28;20033;-62
2022/01/11 03:28:36;;;;;;;58.73;26.47;;;;;;;-0.62;97.17;103073.88;5047467;28;20041;-62
2022/01/11 03:31:02;;;;;;;58.47;26.57;;;;;;;-0.68;96.70;103069.66;5050477;28;20037;-62
2022/01/11 03:33:28;;;;;;;54.80;25.10;;;;;;;-0.69;96.98;103066.19;5049359;28;20068;-61
2022/01/11 03:35:54;;;;;;;55.80;25.77;;;;;;;-0.73;96.84;103064.50;5036832;28;20043;-61
2022/01/11 03:38:22;;;;;;;54.20;25.27;;;;;;;-0.67;97.19;103055.72;5044597;28;20041;-62
2022/01/11 03:40:47;;;;;;;56.80;25.83;;;;;;;-0.63;96.79;103067.81;5047856;28;20083;-62
2022/01/11 03:43:14;;;;;;;56.83;25.67;;;;;;;-0.64;96.74;103066.06;5049836;28;20029;-61
2022/01/11 03:45:39;;;;;;;56.17;26.30;;;;;;;-0.64;96.85;103067.84;5050316;28;20161;-62
2022/01/11 03:48:06;;;;;;;58.07;25.60;;;;;;;-0.62;96.83;103063.44;5044592;28;20040;-61
2022/01/11 03:50:32;;;;;;;58.67;27.07;;;;;;;-0.59;97.19;103052.97;5049192;28;20048;-62
2022/01/11 03:53:19;;;;;;;55.83;26.00;;;;;;;-0.64;96.84;103060.03;5049603;28;20039;-62
2022/01/11 03:55:57;;;;;;;56.27;26.13;;;;;;;-0.69;96.88;103063.56;5049901;28;20101;-62
2022/01/11 03:58:26;;;;;;;55.50;25.23;;;;;;;-0.65;96.51;103063.53;5050330;28;20107;-62
2022/01/11 04:00:52;;;;;;;55.67;25.73;;;;;;;-0.74;96.15;103065.41;5053889;28;20029;-62
2022/01/11 04:03:18;;;;;;;54.50;25.47;;;;;;;-0.70;96.25;103066.19;5047456;28;20052;-61
2022/01/11 04:05:44;;;;;;;52.23;25.83;;;;;;;-0.78;96.23;103074.19;5050339;28;20021;-62
2022/01/11 04:08:11;;;;;;;53.20;25.33;;;;;;;-0.77;96.59;103070.69;5048945;28;20025;-62
2022/01/11 04:10:36;;;;;;;51.67;24.77;;;;;;;-0.78;96.41;103073.34;5043987;28;20361;-62
2022/01/11 04:13:02;;;;;;;55.00;25.77;;;;;;;-0.78;96.38;103076.81;5048206;28;20087;-61
2022/01/11 04:15:27;;;;;;;55.03;25.10;;;;;;;-0.74;96.94;103075.84;5046077;28;20108;-62
2022/01/11 04:17:52;;;;;;;53.47;25.57;;;;;;;-0.76;96.74;103082.84;5048247;28;20036;-62
2022/01/11 04:20:19;;;;;;;53.93;25.30;;;;;;;-0.74;96.17;103080.22;5047326;28;20033;-62
2022/01/11 04:22:46;;;;;;;50.17;24.57;;;;;;;-0.74;96.73;103088.03;5044919;28;20041;-62
2022/01/11 04:25:12;;;;;;;51.57;24.50;;;;;;;-0.77;96.31;103081.13;5047258;28;20036;-62
2022/01/11 04:27:37;;;;;;;50.30;25.07;;;;;;;-0.82;95.77;103072.53;5042340;28;20075;-62
2022/01/11 04:30:03;;;;;;;52.87;25.17;;;;;;;-0.82;96.17;103077.75;5047747;28;20108;-62
2022/01/11 04:32:30;;;;;;;51.23;25.47;;;;;;;-0.89;96.29;103091.78;5046134;28;20017;-62
2022/01/11 04:34:56;;;;;;;47.80;23.73;;;;;;;-0.89;96.10;103091.78;5042532;28;20029;-61
2022/01/11 04:37:21;;;;;;;53.33;25.17;;;;;;;-0.90;96.35;103097.91;5044808;28;20032;-62
2022/01/11 04:39:46;;;;;;;51.30;24.87;;;;;;;-0.91;96.53;103109.19;5040568;28;20030;-62
2022/01/11 04:42:12;;;;;;;48.03;23.77;;;;;;;-0.97;96.28;103100.63;5046991;28;20447;-62
2022/01/11 04:44:37;;;;;;;51.07;25.03;;;;;;;-0.91;96.59;103093.56;5046022;28;20457;-62
2022/01/11 04:47:02;;;;;;;52.47;26.17;;;;;;;-0.95;96.16;103098.84;5050166;28;20039;-62
2022/01/11 04:49:28;;;;;;;47.60;24.60;;;;;;;-0.92;96.94;103094.44;5047378;28;20107;-62
2022/01/11 04:51:54;;;;;;;51.90;25.37;;;;;;;-0.96;96.76;103097.13;5048913;28;20043;-62
2022/01/11 04:54:19;;;;;;;50.70;25.17;;;;;;;-0.98;96.53;103088.47;5039565;28;20036;-61
2022/01/11 04:56:45;;;;;;;51.27;25.23;;;;;;;-0.96;97.04;103091.03;5046232;28;20060;-62
2022/01/11 04:59:10;;;;;;;48.17;24.30;;;;;;;-0.94;96.55;103089.25;5046432;28;20033;-62
2022/01/11 05:01:35;;;;;;;50.23;24.47;;;;;;;-0.96;96.48;103088.44;5034738;28;20463;-64
2022/01/11 05:04:00;;;;;;;51.23;25.37;;;;;;;-0.97;96.27;103085.00;5041277;28;20046;-61
2022/01/11 05:06:26;;;;;;;49.53;23.90;;;;;;;-0.98;96.39;103078.03;5042847;28;20025;-61
2022/01/11 05:08:51;;;;;;;49.67;24.90;;;;;;;-0.98;96.51;103083.25;5043148;28;20053;-62
2022/01/11 05:11:17;;;;;;;52.40;25.53;;;;;;;-0.99;96.67;103081.53;5037991;28;20040;-62
2022/01/11 05:13:42;;;;;;;53.87;25.73;;;;;;;-1.05;96.06;103081.66;5047603;28;20033;-62
2022/01/11 05:16:09;;;;;;;51.10;25.73;;;;;;;-1.01;96.59;103082.47;5047203;28;20112;-62
2022/01/11 05:18:36;;;;;;;54.40;26.23;;;;;;;-1.01;96.06;103082.47;5042776;28;20036;-62
2022/01/11 05:21:02;;;;;;;53.07;25.23;;;;;;;-1.03;96.39;103077.28;5049723;28;20258;-62
2022/01/11 05:23:27;;;;;;;51.30;26.57;;;;;;;-1.04;95.88;103079.94;5041545;28;20139;-62
2022/01/11 05:25:53;;;;;;;52.90;25.40;;;;;;;-1.02;96.33;103081.63;5051389;28;20532;-62
2022/01/11 05:28:18;;;;;;;55.47;27.83;;;;;;;-1.06;95.88;103069.53;5049833;28;20036;-62
2022/01/11 05:30:43;;;;;;;55.00;26.30;;;;;;;-1.08;96.09;103066.97;5043767;28;20021;-62
2022/01/11 05:33:08;;;;;;;53.73;26.53;;;;;;;-1.08;96.04;103066.97;5040924;28;20037;-61
2022/01/11 05:35:34;;;;;;;56.33;26.43;;;;;;;-1.05;96.44;103071.25;5046652;28;20425;-62
2022/01/11 05:37:59;;;;;;;55.43;27.70;;;;;;;-1.08;95.90;103081.75;5051375;28;20025;-62
2022/01/11 05:40:24;;;;;;;58.80;27.83;;;;;;;-1.08;95.97;103079.13;5046144;28;20091;-61
2022/01/11 05:42:50;;;;;;;56.20;27.23;;;;;;;-1.11;96.17;103076.56;5050778;28;20028;-61
2022/01/11 05:45:17;;;;;;;54.67;27.60;;;;;;;-1.23;96.05;103062.91;5050139;28;20056;-61
2022/01/11 05:47:43;;;;;;;55.50;27.17;;;;;;;-1.15;95.76;103082.72;5045861;28;20506;-62
2022/01/11 05:50:11;;;;;;;61.53;28.53;;;;;;;-1.20;95.90;103080.22;5042555;28;20045;-62
2022/01/11 05:52:38;;;;;;;57.33;27.53;;;;;;;-1.17;95.83;103081.91;5047577;28;20029;-62
2022/01/11 05:55:07;;;;;;;59.60;27.43;;;;;;;-1.20;95.90;103071.56;5051175;28;20057;-62
2022/01/11 05:57:32;;;;;;;59.60;27.57;;;;;;;-1.22;95.51;103077.63;5048427;28;20017;-62
2022/01/11 05:59:57;;;;;;;57.20;27.10;;;;;;;-1.23;95.84;103088.09;5050132;28;20035;-61
2022/01/11 06:02:23;;;;;;;56.63;26.70;;;;;;;-1.22;95.80;103097.63;5046558;28;20057;-62
2022/01/11 06:04:48;;;;;;;56.90;27.07;;;;;;;-1.21;95.71;103104.53;5051762;28;20056;-62
2022/01/11 06:07:13;;;;;;;55.57;25.97;;;;;;;-1.18;95.94;103112.28;5047989;28;20056;-62
2022/01/11 06:09:38;;;;;;;55.27;26.67;;;;;;;-1.15;95.95;103119.19;5051337;28;20056;-61
2022/01/11 06:12:04;;;;;;;52.60;25.40;;;;;;;-1.12;95.55;103120.00;5055016;28;20040;-62
2022/01/11 06:14:29;;;;;;;56.27;26.73;;;;;;;-1.13;95.14;103122.63;5042443;28;20032;-61
2022/01/11 06:16:55;;;;;;;54.90;25.93;;;;;;;-1.07;95.10;103125.13;5055002;28;20085;-62
2022/01/11 06:19:20;;;;;;;55.47;25.53;;;;;;;-1.04;95.34;103129.41;5046353;28;20033;-60
2022/01/11 06:21:45;;;;;;;54.83;24.83;;;;;;;-1.04;95.33;103129.41;5052628;28;20037;-62
2022/01/11 06:24:11;;;;;;;50.70;24.37;;;;;;;-1.03;95.26;103129.38;5046091;28;20033;-62
2022/01/11 06:26:36;;;;;;;54.43;24.73;;;;;;;-1.05;94.97;103141.56;5048864;28;20028;-62
2022/01/11 06:29:02;;;;;;;51.70;25.30;;;;;;;-1.06;94.86;103142.47;5050064;28;20064;-62
2022/01/11 06:31:28;;;;;;;50.00;25.00;;;;;;;-1.08;94.23;103147.69;5050231;28;20035;-62
2022/01/11 06:33:53;;;;;;;52.47;25.13;;;;;;;-1.06;94.92;103142.47;5046870;28;20472;-62
2022/01/11 06:36:19;;;;;;;49.50;25.13;;;;;;;-1.08;94.63;103149.44;5045013;28;20022;-62
2022/01/11 06:38:45;;;;;;;51.70;24.87;;;;;;;-1.08;94.73;103144.25;5044114;28;20052;-61
2022/01/11 06:41:10;;;;;;;53.47;24.90;;;;;;;-1.05;94.99;103149.38;5048478;28;20065;-62
2022/01/11 06:43:37;;;;;;;51.50;25.00;;;;;;;-1.08;94.30;103149.44;5051931;28;20043;-62
2022/01/11 06:46:03;;;;;;;48.10;24.60;;;;;;;-1.11;94.87;103152.09;5053229;28;20052;-62
2022/01/11 06:48:28;;;;;;;50.67;23.93;;;;;;;-1.16;93.98;103153.91;5042856;28;20036;-62
2022/01/11 06:50:54;;;;;;;46.23;22.80;;;;;;;-1.17;94.68;103152.22;5048749;28;20025;-61
2022/01/11 06:53:19;;;;;;;47.07;23.93;;;;;;;-1.20;94.06;103160.09;5049237;28;20037;-62
2022/01/11 06:55:44;;;;;;;51.13;23.77;;;;;;;-1.16;94.46;103157.41;5048526;28;20029;-62
2022/01/11 06:58:09;;;;;;;47.13;24.10;;;;;;;-1.18;94.29;103150.50;5040572;28;20036;-62
2022/01/11 07:00:35;;;;;;;46.80;23.77;;;;;;;-1.24;94.03;103154.91;5047445;28;20033;-62
2022/01/11 07:03:00;;;;;;;46.73;24.00;;;;;;;-1.23;93.90;103151.44;5049084;28;20050;-61
2022/01/11 07:05:25;;;;;;;48.40;24.33;;;;;;;-1.18;94.45;103153.94;5048625;28;20079;-62
2022/01/11 07:07:50;;;;;;;48.57;23.93;;;;;;;-1.20;94.52;103155.72;5052066;28;20048;-62
2022/01/11 07:10:16;;;;;;;49.27;25.10;;;;;;;-1.20;94.27;103160.09;5040144;28;20115;-62
2022/01/11 07:12:41;;;;;;;49.87;25.03;;;;;;;-1.20;94.03;103155.72;5031443;28;20476;-62
2022/01/11 07:15:07;;;;;;;51.07;25.30;;;;;;;-1.24;94.10;103164.47;5032369;28;20096;-62
2022/01/11 07:17:33;;;;;;;51.93;25.47;;;;;;;-1.25;94.09;103168.81;5037336;28;20516;-63
2022/01/11 07:19:58;;;;;;;49.83;25.00;;;;;;;-1.26;94.25;103167.13;5033600;28;20102;-62
2022/01/11 07:22:23;;;;;;;51.87;26.23;;;;;;;-1.25;94.41;103171.44;5031479;28;20049;-63
2022/01/11 07:24:49;;;;;;;50.37;24.93;;;;;;;-1.27;94.10;103181.03;5037973;28;20036;-62
2022/01/11 07:27:14;;;;;;;53.00;24.53;;;;;;;-1.28;94.01;103178.44;5036698;28;20116;-62
2022/01/11 07:29:40;;;;;;;52.30;26.13;;;;;;;-1.28;94.38;103179.28;5036791;28;20067;-63
2022/01/11 07:32:05;;;;;;;49.33;24.37;;;;;;;-1.29;93.80;103187.97;5035208;28;20036;-62
2022/01/11 07:34:31;;;;;;;54.17;25.87;;;;;;;-1.28;94.09;103194.06;5036859;28;20029;-63
2022/01/11 07:36:56;;;;;;;51.27;25.07;;;;;;;-1.32;93.85;103187.19;5036933;28;20033;-62
2022/01/11 07:39:21;;;;;;;52.73;26.00;;;;;;;-1.36;93.50;103196.78;5041173;28;20112;-63
2022/01/11 07:41:47;;;;;;;50.73;25.07;;;;;;;-1.35;93.87;103198.50;5035092;28;20029;-62
2022/01/11 07:44:13;;;;;;;51.97;25.70;;;;;;;-1.36;93.71;103196.78;5035082;28;20039;-62
2022/01/11 07:46:42;;;;;;;50.60;25.93;;;;;;;-1.33;94.64;103201.09;5035992;28;20436;-63
2022/01/11 07:49:07;;;;;;;48.80;24.60;;;;;;;-1.36;93.92;103207.19;5035434;28;20023;-61
2022/01/11 07:51:33;;;;;;;51.93;25.87;;;;;;;-1.36;94.38;103213.28;5037624;28;20034;-62
2022/01/11 07:53:58;;;;;;;52.03;24.47;;;;;;;-1.35;94.45;103203.69;5039131;28;20071;-63
2022/01/11 07:56:23;;;;;;;49.17;24.87;;;;;;;-1.32;93.73;103206.28;5041893;28;20032;-63
2022/01/11 07:58:49;;;;;;;48.40;24.77;;;;;;;-1.30;94.08;103204.50;5035578;28;20416;-63
2022/01/11 08:01:15;;;;;;;47.87;24.40;;;;;;;-1.33;93.49;103201.97;5038519;28;20037;-63
2022/01/11 08:03:40;;;;;;;50.33;24.30;;;;;;;-1.31;93.86;103209.72;5041354;28;20064;-62
2022/01/11 08:06:06;;;;;;;47.20;23.53;;;;;;;-1.32;94.06;103211.47;5038902;28;20044;-62
2022/01/11 08:08:31;;;;;;;48.33;24.17;;;;;;;-1.29;94.18;103203.59;5041634;28;20032;-63
2022/01/11 08:10:56;;;;;;;47.93;24.43;;;;;;;-1.27;93.49;103201.84;5048237;28;20495;-63
2022/01/11 08:13:23;;;;;;;48.33;25.03;;;;;;;-1.25;93.78;103205.28;5041984;28;20043;-63
2022/01/11 08:15:49;;;;;;;47.07;23.67;;;;;;;-1.17;93.81;103201.69;5035158;28;20025;-61
2022/01/11 08:18:14;;;;;;;44.37;23.50;;;;;;;-1.11;93.49;103212.00;5036601;28;20078;-62
2022/01/11 08:20:39;;;;;;;45.13;23.73;;;;;;;-1.09;93.33;103210.22;5037551;28;20029;-60
2022/01/11 08:23:05;;;;;;;46.37;22.77;;;;;;;-1.03;93.54;103217.06;5035457;28;20064;-61
2022/01/11 08:25:30;;;;;;;49.70;23.40;;;;;;;-1.03;93.30;103209.25;5046581;28;20021;-63
2022/01/11 08:27:55;;;;;;;44.47;23.23;;;;;;;-0.95;93.49;103213.44;5036601;28;20075;-62
2022/01/11 08:30:20;;;;;;;43.97;21.87;;;;;;;-0.87;93.50;103215.06;5042822;28;20013;-63
2022/01/11 08:32:46;;;;;;;45.13;22.57;;;;;;;-0.84;93.06;103212.41;5037248;28;20029;-63
2022/01/11 08:35:11;;;;;;;43.37;22.07;;;;;;;-0.77;92.47;103219.22;5044659;28;20037;-63
2022/01/11 08:37:37;;;;;;;47.13;22.27;;;;;;;-0.69;92.33;103212.09;5040475;28;20017;-62
2022/01/11 08:40:04;;;;;;;43.77;22.40;;;;;;;-0.67;91.93;103212.09;5035363;28;20029;-57
2022/01/11 08:42:29;;;;;;;40.83;21.40;;;;;;;-0.63;91.92;103216.38;5036688;28;20033;-58
2022/01/11 08:44:55;;;;;;;42.07;21.90;;;;;;;-0.60;91.89;103215.44;5037509;28;20033;-63
2022/01/11 08:47:21;;;;;;;45.63;22.17;;;;;;;-0.55;92.16;103216.19;5046259;28;20044;-63
2022/01/11 08:49:47;;;;;;;40.30;21.63;;;;;;;-0.51;92.43;103215.25;5036677;28;20401;-62
2022/01/11 08:52:12;;;;;;;44.57;21.77;;;;;;;-0.46;92.30;103221.25;5048296;28;20041;-63
2022/01/11 08:54:38;;;;;;;39.20;21.23;;;;;;;-0.43;91.40;103218.56;5044539;28;20470;-63
2022/01/11 08:57:05;;;;;;;40.40;20.53;;;;;;;-0.36;92.06;103221.91;5054320;28;20040;-63
2022/01/11 08:59:30;;;;;;;39.73;20.40;;;;;;;-0.32;91.62;103217.50;5047008;28;20366;-62
2022/01/11 09:01:58;;;;;;;40.00;19.57;;;;;;;-0.27;91.15;103226.09;5043409;28;20047;-62
2022/01/11 09:04:24;;;;;;;37.70;20.53;;;;;;;-0.23;91.31;103227.75;5040351;28;20056;-62
2022/01/11 09:06:51;;;;;;;38.93;21.03;;;;;;;-0.21;91.36;103227.69;5043951;28;20228;-63
2022/01/11 09:09:17;;;;;;;39.00;19.50;;;;;;;-0.12;90.91;103240.56;5049304;28;20036;-63
2022/01/11 09:11:43;;;;;;;37.53;20.07;;;;;;;-0.08;90.55;103238.75;5045885;28;20128;-63
2022/01/11 09:14:09;;;;;;;36.67;18.47;;;;;;;-0.04;90.59;103236.03;5050305;28;20028;-63
2022/01/11 09:16:34;;;;;;;35.87;18.93;;;;;;;0.03;90.33;103239.38;5050820;28;20044;-63
2022/01/11 09:18:59;;;;;;;35.37;19.77;;;;;;;0.06;89.81;103234.09;5050177;28;20032;-63
2022/01/11 09:21:25;;;;;;;34.93;19.07;;;;;;;0.08;90.00;103237.53;5043863;28;20037;-63
2022/01/11 09:23:51;;;;;;;34.10;18.67;;;;;;;0.09;89.37;103241.84;5052755;28;20037;-63
2022/01/11 09:26:16;;;;;;;35.37;19.20;;;;;;;0.11;89.64;103245.28;5052651;28;20265;-63
2022/01/11 09:28:42;;;;;;;35.50;18.50;;;;;;;0.18;89.57;103237.31;5039563;28;20036;-59
2022/01/11 09:31:07;;;;;;;34.73;19.40;;;;;;;0.21;89.11;103242.47;5037786;28;20029;-58
2022/01/11 09:33:33;;;;;;;34.33;18.70;;;;;;;0.30;89.85;103241.41;5044562;28;20487;-59
2022/01/11 09:35:59;;;;;;;34.20;19.07;;;;;;;0.32;88.78;103237.00;5050968;28;20494;-57
2022/01/11 09:38:24;;;;;;;31.57;18.10;;;;;;;0.35;89.00;103245.63;5050429;28;20037;-59
2022/01/11 09:40:51;;;;;;;35.53;19.20;;;;;;;0.37;88.38;103243.84;5052250;28;20051;-59
2022/01/11 09:43:21;;;;;;;33.57;17.97;;;;;;;0.44;89.20;103248.94;5040376;28;20032;-59
2022/01/11 09:45:46;;;;;;;34.63;17.77;;;;;;;0.50;88.89;103259.25;5041529;28;20038;-59
2022/01/11 09:48:12;;;;;;;34.53;17.77;;;;;;;0.56;88.33;103253.88;5048674;28;20036;-59
2022/01/11 09:50:37;;;;;;;34.80;17.70;;;;;;;0.62;88.11;103258.94;5046889;28;20040;-58
2022/01/11 09:53:02;;;;;;;32.87;17.83;;;;;;;0.65;87.74;103264.09;5040204;28;20029;-57
2022/01/11 09:55:28;;;;;;;33.80;17.60;;;;;;;0.66;88.13;103259.72;5044461;28;20087;-58
2022/01/11 09:57:53;;;;;;;28.13;16.10;;;;;;;0.67;87.60;103261.44;5041468;28;20037;-58
2022/01/11 10:00:19;;;;;;;33.47;17.37;;;;;;;0.69;87.12;103264.03;5039877;28;20037;-58
2022/01/11 10:02:46;;;;;;;29.47;16.53;;;;;;;0.72;87.33;103258.72;5041898;28;20029;-58
2022/01/11 10:05:13;;;;;;;31.50;16.50;;;;;;;0.75;87.53;103271.72;5043110;28;20090;-57
2022/01/11 10:07:40;;;;;;;30.67;16.63;;;;;;;0.79;87.23;103270.75;5045370;28;20025;-59
2022/01/11 10:10:26;;;;;;;33.00;16.87;;;;;;;0.85;87.64;103270.59;5043983;28;20018;-59
2022/01/11 10:12:55;;;;;;;31.37;17.13;;;;;;;0.86;86.67;103261.88;5038303;28;20033;-59
2022/01/11 10:15:28;;;;;;;30.37;16.87;;;;;;;0.88;86.89;103265.28;5040426;28;20048;-59
2022/01/11 10:17:54;;;;;;;30.13;16.87;;;;;;;0.90;87.17;103263.50;5043196;28;20025;-58
2022/01/11 10:20:22;;;;;;;32.50;17.43;;;;;;;0.94;87.38;103262.53;5047655;28;20476;-59
2022/01/11 10:22:52;;;;;;;28.80;16.77;;;;;;;0.99;86.97;103264.19;5039952;28;20120;-58
2022/01/11 10:25:18;;;;;;;31.03;17.03;;;;;;;1.03;86.64;103265.81;5048167;28;20124;-59
2022/01/11 10:27:43;;;;;;;31.67;16.43;;;;;;;1.06;86.14;103264.00;5033337;28;20455;-59
2022/01/11 10:30:13;;;;;;;29.23;15.83;;;;;;;1.08;85.87;103261.31;5047958;28;20439;-57
2022/01/11 10:32:47;;;;;;;29.27;16.57;;;;;;;1.11;86.31;103255.16;5035193;28;20422;-58
2022/01/11 10:35:19;;;;;;;30.97;16.20;;;;;;;1.18;85.52;103262.81;5037048;28;20562;-59
2022/01/11 10:37:47;;;;;;;29.15;15.48;;;;;;;1.19;85.37;103264.50;5036236;28;20028;-58
2022/01/11 10:40:25;;;;;;;28.53;14.93;;;;;;;1.26;85.48;103259.13;5031947;28;20068;-59
2022/01/11 10:42:59;;;;;;;25.93;15.17;;;;;;;1.28;85.74;103258.19;5038727;28;20472;-58
2022/01/11 10:45:37;;;;;;;27.90;15.30;;;;;;;1.35;85.72;103269.34;5038400;28;20029;-59
2022/01/11 10:48:06;;;;;;;28.57;15.37;;;;;;;1.34;85.64;103257.19;5037486;28;20029;-57
2022/01/11 10:50:39;;;;;;;28.40;15.37;;;;;;;1.40;85.52;103262.25;5038307;28;20043;-58
2022/01/11 10:53:17;;;;;;;28.30;15.03;;;;;;;1.42;85.02;103263.06;5038163;28;20063;-59
2022/01/11 10:55:47;;;;;;;29.23;15.03;;;;;;;1.48;85.12;103275.97;5048712;28;20527;-58
2022/01/11 10:58:12;;;;;;;28.27;13.97;;;;;;;1.54;84.74;103274.09;5045624;28;20029;-58
2022/01/11 11:00:43;;;;;;;25.70;14.23;;;;;;;1.58;85.11;103273.09;5040796;28;20455;-59
2022/01/11 11:03:14;;;;;;;25.47;14.30;;;;;;;1.60;85.03;103263.44;5043224;28;20044;-58
2022/01/11 11:05:47;;;;;;;26.87;14.17;;;;;;;1.63;84.38;103265.97;5037675;28;20017;-58
2022/01/11 11:08:20;;;;;;;26.88;13.88;;;;;;;1.65;84.61;103266.81;5032146;28;20357;-59